KABI/ABI METAR and TAF weather

Enter ICAO airport designator
Station Type Date Time Source
KABI METAR 2018/04/26 14:52 UTC NOAA

KABI 261452Z 29004KT 10SM CLR 14/09 A3005 RMK AO2 SLP170 T01390089 50000


Station Type Date Time Source
KABI Decoded METAR 2018/04/26 14:52 UTC NOAA

ABILENE REGIONAL AIRPORT, TX, United States (KABI) 32-25N 099-41W 548M
Apr 26, 2018 - 10:52 AM EDT / 2018.04.26 1452 UTC
Wind: from the WNW (290 degrees) at 5 MPH (4 KT):0
Visibility: 10 mile(s):0
Sky conditions: clear
Temperature: 57.0 F (13.9 C)
Dew Point: 48.0 F (8.9 C)
Relative Humidity: 71%
Pressure (altimeter): 30.05 in. Hg (1017 hPa)
Pressure tendency: 0.00 inches (0.0 hPa) higher than three hours ago
ob: KABI 261452Z 29004KT 10SM CLR 14/09 A3005 RMK AO2 SLP170 T01390089 50000
cycle: 15

Station Type Date Time Source
KABI TAF 2018/04/26 13:54 UTC NOAA

TAF
AMD KABI 261251Z 2613/2712 18004KT P6SM SKC
FM270500 03009KT P6SM SCT100


Example: see airport list